Knights Ferry, California
Current Conditions -  °F | °C
As of 1:53 PM on Sunday 23 Nov 2014 (Local Time) from KMOD Reporting Station
Clear Clear  
Wind Chill: 63°   Ceiling: Unl
Heat Index: 63°   Visibility: 10mi
Dew Point: 40°   Wind: 5mph
Humidity: 43%   Direction: 350°N
Pressure: 30.29"   Gusts: NA
Location:  37.7848°N, 120.772°W
Report Text: KMOD 232153Z 35004KT 10SM CLR 17/04 A3029 RMK AO2 SLP256 T01720044 $
Loading
Personal Weather Stations






























Interactive Weather Map New forecast layout! Learn more

10-Day Weather Forecast

Advertisements
Track Severe Weather on mobile